createdAt,value
2023-07-19T00:01:12.960Z,959.85
2023-07-19T00:06:14.812Z,965.90
2023-07-19T00:11:16.675Z,961.05
2023-07-19T00:16:18.520Z,959.08
2023-07-19T00:21:20.614Z,961.63
2023-07-19T00:26:22.929Z,965.97
2023-07-19T00:31:24.837Z,956.40
2023-07-19T00:36:26.692Z,943.35
2023-07-19T00:41:28.561Z,952.15
2023-07-19T00:46:30.693Z,939.28
2023-07-19T00:51:32.514Z,948.10
2023-07-19T00:56:34.434Z,930.78
2023-07-19T01:01:37.069Z,930.72
2023-07-19T01:06:42.602Z,926.75
2023-07-19T01:11:45.109Z,934.75
2023-07-19T01:16:47.028Z,922.33
2023-07-19T01:21:49.717Z,917.92
2023-07-19T01:26:51.629Z,928.25
2023-07-19T01:31:53.460Z,913.38
2023-07-19T01:36:55.335Z,916.65
2023-07-19T01:41:57.232Z,918.60
2023-07-19T01:46:59.073Z,917.95
2023-07-19T01:52:01.033Z,905.53
2023-07-19T01:57:03.042Z,898.78
2023-07-19T02:02:05.349Z,912.38
2023-07-19T02:07:07.249Z,908.53
2023-07-19T02:12:09.510Z,903.80
2023-07-19T02:17:11.464Z,900.10
2023-07-19T02:22:16.843Z,902.45
2023-07-19T02:27:18.688Z,896.20
2023-07-19T02:32:21.009Z,905.63
2023-07-19T02:37:23.246Z,901.65
2023-07-19T02:42:25.182Z,897.50
2023-07-19T02:47:26.994Z,906.47
2023-07-19T02:52:29.144Z,896.90
2023-07-19T02:57:31.048Z,899.10
2023-07-19T03:02:32.904Z,894.50
2023-07-19T03:07:34.800Z,898.20
2023-07-19T03:12:36.674Z,882.17
2023-07-19T03:17:38.607Z,891.35
2023-07-19T03:22:41.718Z,881.13
2023-07-19T03:27:44.228Z,887.25
2023-07-19T03:32:46.175Z,891.83
2023-07-19T03:37:48.216Z,876.10
2023-07-19T03:42:50.245Z,896.55
2023-07-19T03:47:52.256Z,876.83
2023-07-19T03:52:54.461Z,891.95
2023-07-19T03:57:57.125Z,884.00
2023-07-19T04:02:59.654Z,891.85
2023-07-19T04:08:02.660Z,901.80
2023-07-19T04:13:05.981Z,894.08
2023-07-19T04:18:07.882Z,883.53
2023-07-19T04:23:10.096Z,904.53
2023-07-19T04:28:12.777Z,893.45
2023-07-19T04:33:15.484Z,915.28
2023-07-19T04:38:17.651Z,899.47
2023-07-19T04:43:19.596Z,907.60
2023-07-19T04:48:27.716Z,921.80
2023-07-19T04:53:30.237Z,907.08
2023-07-19T04:58:33.560Z,907.42
2023-07-19T05:03:39.652Z,916.95
2023-07-19T05:08:42.328Z,927.03
2023-07-19T05:13:44.355Z,937.03
2023-07-19T05:18:46.304Z,924.13
2023-07-19T05:23:49.662Z,923.25
2023-07-19T05:28:51.731Z,929.38
2023-07-19T05:33:54.688Z,937.13
2023-07-19T05:38:56.815Z,950.90
2023-07-19T05:44:10.149Z,949.35
2023-07-19T05:49:13.313Z,942.47
2023-07-19T05:54:16.779Z,951.25
2023-07-19T05:59:18.705Z,939.05
2023-07-19T06:04:20.544Z,964.88
2023-07-19T06:09:22.772Z,957.17
2023-07-19T06:14:25.003Z,957.80
2023-07-19T06:19:26.894Z,969.28
2023-07-19T06:24:28.695Z,975.20
2023-07-19T06:29:30.505Z,983.22
2023-07-19T06:34:32.530Z,987.33
2023-07-19T06:39:34.567Z,991.03
2023-07-19T06:44:36.797Z,999.67
2023-07-19T06:49:38.895Z,994.53
2023-07-19T06:54:40.747Z,998.42
2023-07-19T06:59:42.612Z,995.38
2023-07-19T07:04:44.631Z,994.45
2023-07-19T07:09:46.970Z,999.90
2023-07-19T07:14:50.918Z,999.60
2023-07-19T07:19:54.935Z,999.90
2023-07-19T07:24:57.194Z,999.90
2023-07-19T07:29:59.436Z,999.90
2023-07-19T07:35:01.419Z,999.90
2023-07-19T07:40:04.364Z,999.90
2023-07-19T07:45:06.656Z,999.90
2023-07-19T07:50:11.543Z,999.90
2023-07-19T07:55:13.853Z,999.90
2023-07-19T08:00:16.388Z,999.90
2023-07-19T08:05:18.359Z,999.90
2023-07-19T08:10:20.387Z,999.90
2023-07-19T08:15:24.665Z,999.90
2023-07-19T08:20:27.266Z,999.90
2023-07-19T08:25:30.555Z,999.90
2023-07-19T08:30:33.484Z,999.90
2023-07-19T08:35:35.831Z,999.90
2023-07-19T08:40:39.386Z,999.90
2023-07-19T08:45:41.406Z,999.90
2023-07-19T08:50:43.673Z,999.90
2023-07-19T08:55:49.320Z,999.90
2023-07-19T09:00:53.934Z,999.90
2023-07-19T09:05:55.893Z,999.90
2023-07-19T09:10:57.904Z,999.90
2023-07-19T09:16:00.392Z,999.90
2023-07-19T09:21:02.315Z,999.90
2023-07-19T09:26:05.424Z,999.90
2023-07-19T09:31:23.746Z,999.90
2023-07-19T09:36:29.653Z,999.90
2023-07-19T09:41:31.711Z,999.90
2023-07-19T09:46:35.281Z,999.90
2023-07-19T09:51:39.352Z,999.90
2023-07-19T09:56:42.156Z,999.90
2023-07-19T10:01:44.864Z,999.90
2023-07-19T10:06:46.780Z,999.90
2023-07-19T10:11:50.427Z,999.90
2023-07-19T10:16:56.245Z,999.90
2023-07-19T10:22:05.508Z,999.90
2023-07-19T10:27:08.441Z,999.90
2023-07-19T10:32:10.582Z,999.90
2023-07-19T10:37:12.670Z,999.90
2023-07-19T10:42:14.707Z,999.90
2023-07-19T10:47:16.775Z,999.90
2023-07-19T10:52:20.630Z,999.90
2023-07-19T10:57:22.895Z,999.90
2023-07-19T11:02:25.461Z,999.90
2023-07-19T11:07:33.928Z,999.90
2023-07-19T11:12:36.064Z,999.90
2023-07-19T11:17:41.350Z,999.90
2023-07-19T11:22:43.447Z,999.90
2023-07-19T11:27:49.779Z,999.90
2023-07-19T11:33:07.929Z,999.90
2023-07-19T11:38:09.856Z,999.90
2023-07-19T11:43:11.724Z,999.90
2023-07-19T11:48:13.667Z,999.90
2023-07-19T11:53:15.877Z,999.90
2023-07-19T11:58:21.446Z,999.90
2023-07-19T12:03:27.708Z,999.90
2023-07-19T12:08:29.903Z,999.90
2023-07-19T12:13:31.880Z,999.90
2023-07-19T12:18:33.708Z,999.90
2023-07-19T12:23:37.168Z,999.90
2023-07-19T12:28:40.170Z,999.90
2023-07-19T12:33:41.970Z,999.90
2023-07-19T12:38:43.913Z,999.90
2023-07-19T12:43:46.259Z,999.90
2023-07-19T12:48:49.602Z,999.90
2023-07-19T12:53:51.628Z,999.90
2023-07-19T12:58:53.468Z,999.90
2023-07-19T13:03:56.026Z,999.90
2023-07-19T13:08:58.326Z,999.90
2023-07-19T13:14:00.253Z,999.90
2023-07-19T13:19:02.218Z,999.90
2023-07-19T13:24:04.281Z,999.90
2023-07-19T13:29:06.328Z,999.90
2023-07-19T13:34:08.254Z,999.90
2023-07-19T13:39:10.312Z,999.90
2023-07-19T13:44:12.511Z,999.90
2023-07-19T13:49:14.491Z,999.90
2023-07-19T13:54:16.416Z,999.90
2023-07-19T13:59:18.401Z,999.90
2023-07-19T14:04:20.343Z,999.90
2023-07-19T14:09:22.634Z,999.90
2023-07-19T14:14:27.065Z,999.90
2023-07-19T14:19:29.561Z,999.90
2023-07-19T14:24:31.460Z,999.90
2023-07-19T14:29:33.377Z,999.90
2023-07-19T14:39:40.076Z,999.90
2023-07-19T14:44:42.218Z,999.90
2023-07-19T14:49:44.163Z,999.90
2023-07-19T14:54:46.020Z,999.90
2023-07-19T15:00:00.611Z,999.90
2023-07-19T15:05:10.903Z,999.90
2023-07-19T15:10:16.571Z,999.90
2023-07-19T15:15:20.282Z,999.90
2023-07-19T15:20:23.578Z,999.90
2023-07-19T15:25:25.597Z,999.90
2023-07-19T15:30:27.463Z,999.90
2023-07-19T15:35:29.914Z,999.90
2023-07-19T15:40:32.038Z,999.90
2023-07-19T15:45:34.088Z,999.90
2023-07-19T15:50:36.328Z,999.90
2023-07-19T15:55:38.397Z,999.90
2023-07-19T16:00:40.235Z,999.90
2023-07-19T16:05:42.134Z,999.90
2023-07-19T16:10:46.390Z,999.90
2023-07-19T16:15:48.243Z,999.90
2023-07-19T16:20:50.184Z,999.90
2023-07-19T16:25:52.080Z,999.90
2023-07-19T16:30:54.268Z,999.90
2023-07-19T16:35:56.146Z,999.90
2023-07-19T16:40:58.411Z,999.90
2023-07-19T16:46:02.994Z,999.90
2023-07-19T16:51:04.874Z,999.90
2023-07-19T16:56:07.395Z,999.90
2023-07-19T17:01:11.120Z,999.90
2023-07-19T17:06:14.766Z,999.90
2023-07-19T17:11:19.976Z,999.47
2023-07-19T17:16:22.477Z,999.90
2023-07-19T17:21:24.539Z,999.90
2023-07-19T17:26:26.741Z,999.90
2023-07-19T17:31:28.764Z,999.90
2023-07-19T17:36:30.895Z,999.05
2023-07-19T17:41:35.049Z,999.90
2023-07-19T17:46:38.186Z,998.13
2023-07-19T17:51:40.093Z,991.08
2023-07-19T17:56:42.830Z,997.83
2023-07-19T18:01:45.072Z,993.65
2023-07-19T18:06:46.969Z,999.90
2023-07-19T18:11:48.940Z,998.97
2023-07-19T18:16:51.261Z,997.40
2023-07-19T18:22:03.517Z,987.70
2023-07-19T18:27:08.484Z,993.22
2023-07-19T18:32:10.500Z,998.95
2023-07-19T18:37:12.364Z,996.22
2023-07-19T18:42:14.822Z,984.88
2023-07-19T18:47:16.933Z,998.70
2023-07-19T18:52:19.121Z,990.03
2023-07-19T18:57:21.251Z,995.95
2023-07-19T19:02:23.271Z,986.50
2023-07-19T19:07:25.373Z,989.80
2023-07-19T19:12:27.256Z,988.75
2023-07-19T19:17:29.095Z,990.03
2023-07-19T19:22:32.190Z,987.65
2023-07-19T19:27:34.257Z,986.80
2023-07-19T19:32:36.748Z,973.63
2023-07-19T19:37:38.711Z,984.05
2023-07-19T19:42:42.027Z,985.78
2023-07-19T19:47:46.534Z,990.33
2023-07-19T19:53:03.219Z,973.85
2023-07-19T19:58:10.187Z,970.53
2023-07-19T20:08:17.119Z,969.75
2023-07-19T20:13:19.758Z,986.17
2023-07-19T20:18:23.371Z,980.63
2023-07-19T20:23:26.042Z,973.38
2023-07-19T20:28:28.163Z,973.15
2023-07-19T20:33:30.245Z,962.22
2023-07-19T20:43:37.228Z,970.67
2023-07-19T20:48:40.441Z,981.08
2023-07-19T20:53:42.623Z,961.30
2023-07-19T20:58:44.500Z,968.25
2023-07-19T21:03:46.521Z,962.55
2023-07-19T21:08:49.689Z,970.30
2023-07-19T21:13:51.591Z,953.50
2023-07-19T21:18:53.390Z,979.22
2023-07-19T21:23:55.284Z,956.83
2023-07-19T21:28:57.267Z,961.63
2023-07-19T21:33:59.167Z,961.20
2023-07-19T21:39:01.062Z,965.50
2023-07-19T21:44:04.856Z,960.22
2023-07-19T21:49:08.383Z,958.55
2023-07-19T21:54:10.210Z,963.70
2023-07-19T21:59:12.087Z,961.25
2023-07-19T22:04:13.958Z,954.75
2023-07-19T22:09:15.835Z,946.97
2023-07-19T22:14:17.713Z,971.17
2023-07-19T22:19:19.710Z,955.10
2023-07-19T22:24:21.601Z,954.67
2023-07-19T22:29:23.478Z,960.47
2023-07-19T22:34:25.329Z,946.38
2023-07-19T22:39:27.156Z,953.97
2023-07-19T22:44:28.959Z,957.15
2023-07-19T22:49:30.970Z,951.70
2023-07-19T22:54:32.772Z,955.05
2023-07-19T22:59:34.578Z,947.35
2023-07-19T23:04:36.432Z,946.00
2023-07-19T23:09:38.335Z,947.67
2023-07-19T23:14:40.144Z,937.97
2023-07-19T23:19:46.917Z,931.88
2023-07-19T23:24:49.014Z,932.00
2023-07-19T23:29:55.246Z,919.20
2023-07-19T23:34:57.294Z,932.90
2023-07-19T23:39:59.162Z,933.78
2023-07-19T23:45:01.020Z,926.90
2023-07-19T23:50:03.911Z,920.55
2023-07-19T23:55:06.451Z,921.55
